createdAt,value
2022-09-14T00:01:41.030Z,17.10
2022-09-14T00:04:42.917Z,17.00
2022-09-14T00:07:44.797Z,17.10
2022-09-14T00:10:46.994Z,17.10
2022-09-14T00:13:49.064Z,17.20
2022-09-14T00:22:55.960Z,17.50
2022-09-14T00:26:07.420Z,17.50
2022-09-14T00:29:10.939Z,17.50
2022-09-14T00:32:12.869Z,17.50
2022-09-14T00:35:14.811Z,17.40
2022-09-14T00:38:16.669Z,17.30
2022-09-14T00:41:21.533Z,17.20
2022-09-14T00:50:27.955Z,17.10
2022-09-14T00:53:30.837Z,17.00
2022-09-14T00:59:36.764Z,17.40
2022-09-14T01:02:39.705Z,17.40
2022-09-14T01:09:00.619Z,17.60
2022-09-14T01:15:23.095Z,17.70
2022-09-14T01:18:29.087Z,17.80
2022-09-14T01:21:39.435Z,17.60
2022-09-14T01:25:04.844Z,17.60
2022-09-14T01:28:17.039Z,17.50
2022-09-14T01:31:27.254Z,17.50
2022-09-14T01:35:07.584Z,17.40
2022-09-14T01:38:16.417Z,17.20
2022-09-14T01:41:24.016Z,17.20
2022-09-14T01:44:34.296Z,17.30
2022-09-14T01:47:43.935Z,17.10
2022-09-14T01:50:53.577Z,17.00
2022-09-14T01:54:03.189Z,17.10
2022-09-14T01:57:21.606Z,17.10
2022-09-14T02:00:23.797Z,17.20
2022-09-14T02:03:29.878Z,17.10
2022-09-14T02:12:36.827Z,17.20
2022-09-14T02:15:39.539Z,17.30
2022-09-14T02:24:46.752Z,17.40
2022-09-14T02:31:17.521Z,17.10
2022-09-14T02:34:40.636Z,17.00
2022-09-14T02:38:24.388Z,17.10
2022-09-14T02:42:03.247Z,17.30
2022-09-14T02:45:50.942Z,17.30
2022-09-14T02:48:59.386Z,17.30
2022-09-14T02:52:11.531Z,17.30
2022-09-14T02:55:18.135Z,17.10
2022-09-14T02:58:20.059Z,17.10
2022-09-14T03:01:23.561Z,17.20
2022-09-14T03:04:25.533Z,17.20
2022-09-14T03:07:27.389Z,17.20
2022-09-14T03:10:29.628Z,17.30
2022-09-14T03:13:31.557Z,17.10
2022-09-14T03:16:33.517Z,17.20
2022-09-14T03:22:37.701Z,17.10
2022-09-14T03:25:41.603Z,17.10
2022-09-14T03:28:44.062Z,17.20
2022-09-14T03:31:45.889Z,17.20
2022-09-14T03:40:52.553Z,17.00
2022-09-14T03:43:54.530Z,17.00
2022-09-14T03:46:56.428Z,17.00
2022-09-14T03:49:58.356Z,17.00
2022-09-14T03:56:07.684Z,16.80
2022-09-14T03:59:09.776Z,16.80
2022-09-14T04:05:14.064Z,16.60
2022-09-14T04:11:20.936Z,16.50
2022-09-14T04:14:24.003Z,16.70
2022-09-14T04:17:25.843Z,16.70
2022-09-14T04:20:27.682Z,16.70
2022-09-14T04:23:29.647Z,16.70
2022-09-14T04:26:32.448Z,16.50
2022-09-14T04:29:34.370Z,16.50
2022-09-14T04:32:36.216Z,16.50
2022-09-14T04:35:38.067Z,16.30
2022-09-14T04:44:45.251Z,16.30
2022-09-14T04:47:47.112Z,16.40
2022-09-14T04:50:48.955Z,16.40
2022-09-14T04:53:53.195Z,16.40
2022-09-14T04:56:55.097Z,16.50
2022-09-14T05:02:59.251Z,16.60
2022-09-14T05:06:06.068Z,16.80
2022-09-14T05:09:12.063Z,16.90
2022-09-14T05:15:16.278Z,16.90
2022-09-14T05:18:19.130Z,17.00
2022-09-14T05:21:22.393Z,17.00
2022-09-14T05:33:53.976Z,17.70
2022-09-14T05:36:55.873Z,17.90
2022-09-14T05:46:05.723Z,18.30
2022-09-14T05:52:09.982Z,18.30
2022-09-14T06:01:22.414Z,18.10
2022-09-14T06:10:29.360Z,18.00
2022-09-14T06:16:34.627Z,18.20
2022-09-14T06:31:45.983Z,18.80
2022-09-14T06:40:57.023Z,19.00
2022-09-14T06:44:00.071Z,19.30
2022-09-14T06:50:04.700Z,19.40
2022-09-14T06:56:08.922Z,19.70
2022-09-14T06:59:12.595Z,19.90
2022-09-14T07:02:14.618Z,20.10
2022-09-14T07:08:19.183Z,20.30
2022-09-14T07:11:24.024Z,20.80
2022-09-14T07:14:29.241Z,20.80
2022-09-14T07:20:35.764Z,21.40
2022-09-14T07:23:40.149Z,21.00
2022-09-14T07:26:42.501Z,20.90
2022-09-14T07:29:44.300Z,21.00
2022-09-14T07:35:48.456Z,22.40
2022-09-14T07:41:55.300Z,22.80
2022-09-14T07:44:57.167Z,23.00
2022-09-14T07:47:59.085Z,22.50
2022-09-14T07:51:09.279Z,24.00
2022-09-14T07:54:13.442Z,23.90
2022-09-14T08:00:17.942Z,24.40
2022-09-14T08:06:23.509Z,24.00
2022-09-14T08:12:27.583Z,23.90
2022-09-14T08:18:33.235Z,23.50
2022-09-14T08:24:37.750Z,23.40
2022-09-14T08:27:39.677Z,23.50
2022-09-14T08:30:41.532Z,23.50
2022-09-14T08:33:46.072Z,23.70
2022-09-14T08:39:51.732Z,23.50
2022-09-14T08:42:57.892Z,23.50
2022-09-14T08:46:05.277Z,23.30
2022-09-14T08:49:31.288Z,23.20
2022-09-14T08:56:00.682Z,23.40
2022-09-14T08:59:23.906Z,23.60
2022-09-14T09:02:41.025Z,23.60
2022-09-14T09:06:03.116Z,25.30
2022-09-14T09:09:30.109Z,25.40
2022-09-14T09:12:54.152Z,25.40
2022-09-14T09:16:00.270Z,25.50
2022-09-14T09:19:07.780Z,26.00
2022-09-14T09:22:14.988Z,26.00
2022-09-14T09:25:22.312Z,27.00
2022-09-14T09:28:26.018Z,27.00
2022-09-14T09:31:40.232Z,25.50
2022-09-14T09:37:44.775Z,25.30
2022-09-14T09:40:50.757Z,26.00
2022-09-14T09:44:02.838Z,26.10
2022-09-14T09:47:04.823Z,26.10
2022-09-14T09:53:16.827Z,25.60
2022-09-14T09:56:22.930Z,25.60
2022-09-14T09:59:41.667Z,25.50
2022-09-14T10:05:45.728Z,25.00
2022-09-14T10:12:01.926Z,24.80
2022-09-14T10:15:08.665Z,24.80
2022-09-14T10:21:18.370Z,24.80
2022-09-14T10:27:38.235Z,24.80
2022-09-14T10:30:48.392Z,25.20
2022-09-14T10:33:54.770Z,25.20
2022-09-14T10:37:13.754Z,25.20
2022-09-14T10:40:19.685Z,25.40
2022-09-14T10:43:44.809Z,25.30
2022-09-14T10:46:55.015Z,25.20
2022-09-14T10:53:17.892Z,25.70
2022-09-14T10:56:24.441Z,26.20
2022-09-14T11:03:00.487Z,26.10
2022-09-14T11:06:08.340Z,26.20
2022-09-14T11:09:28.159Z,26.80
2022-09-14T11:12:53.748Z,27.10
2022-09-14T11:19:27.665Z,27.60
2022-09-14T11:22:57.884Z,27.10
2022-09-14T11:26:03.763Z,27.30
2022-09-14T11:29:27.819Z,27.00
2022-09-14T11:32:38.765Z,27.00
2022-09-14T11:36:00.753Z,26.50
2022-09-14T11:39:16.236Z,26.30
2022-09-14T11:42:27.534Z,26.10
2022-09-14T11:45:35.578Z,26.10
2022-09-14T11:48:59.929Z,26.00
2022-09-14T11:52:28.187Z,26.00
2022-09-14T11:58:33.060Z,26.30
2022-09-14T12:01:37.737Z,26.50
2022-09-14T12:05:05.154Z,26.50
2022-09-14T12:08:28.197Z,26.50
2022-09-14T12:11:36.119Z,26.40
2022-09-14T12:17:41.433Z,26.50
2022-09-14T12:21:20.820Z,26.50
2022-09-14T12:24:23.135Z,26.50
2022-09-14T12:27:25.088Z,26.30
2022-09-14T12:33:44.498Z,26.80
2022-09-14T12:40:07.531Z,26.80
2022-09-14T12:43:34.445Z,26.60
2022-09-14T12:46:37.664Z,27.00
2022-09-14T12:49:40.050Z,27.00
2022-09-14T12:53:06.754Z,27.00
2022-09-14T12:56:22.965Z,26.90
2022-09-14T12:59:48.623Z,26.80
2022-09-14T13:08:56.713Z,27.20
2022-09-14T13:15:07.530Z,28.00
2022-09-14T13:21:23.118Z,28.60
2022-09-14T13:24:32.149Z,28.00
2022-09-14T13:27:36.859Z,27.80
2022-09-14T13:33:51.369Z,28.20
2022-09-14T13:39:57.379Z,28.30
2022-09-14T13:43:00.170Z,28.20
2022-09-14T13:49:07.619Z,28.80
2022-09-14T13:52:38.985Z,28.80
2022-09-14T13:59:12.002Z,29.00
2022-09-14T14:05:25.050Z,28.30
2022-09-14T14:08:35.073Z,28.20
2022-09-14T14:11:51.182Z,28.20
2022-09-14T14:14:58.603Z,28.20
2022-09-14T14:21:14.186Z,28.90
2022-09-14T14:24:26.597Z,28.90
2022-09-14T14:27:30.650Z,28.70
2022-09-14T14:30:37.694Z,28.60
2022-09-14T14:33:50.836Z,28.40
2022-09-14T14:42:59.370Z,27.90
2022-09-14T14:46:02.086Z,28.00
2022-09-14T14:52:06.158Z,27.90
2022-09-14T14:55:08.493Z,28.00
2022-09-14T14:58:15.992Z,28.40
2022-09-14T15:10:25.953Z,28.50
2022-09-14T15:13:27.803Z,28.00
2022-09-14T15:16:29.693Z,27.90
2022-09-14T15:19:31.617Z,27.90
2022-09-14T15:22:33.453Z,28.00
2022-09-14T15:25:35.357Z,27.80
2022-09-14T15:31:40.114Z,26.90
2022-09-14T15:37:44.180Z,26.50
2022-09-14T15:40:46.047Z,26.70
2022-09-14T15:43:47.929Z,26.50
2022-09-14T15:46:50.810Z,26.60
2022-09-14T15:52:58.058Z,26.50
2022-09-14T16:11:14.827Z,26.00
2022-09-14T16:17:18.863Z,25.70
2022-09-14T16:23:22.925Z,25.60
2022-09-14T16:26:27.580Z,25.40
2022-09-14T16:32:31.677Z,25.00
2022-09-14T16:35:33.575Z,24.90
2022-09-14T16:38:36.256Z,24.70
2022-09-14T16:41:38.417Z,24.50
2022-09-14T16:44:40.292Z,24.40
2022-09-14T16:47:42.166Z,24.40
2022-09-14T16:50:44.079Z,24.20
2022-09-14T16:53:47.169Z,24.10
2022-09-14T16:59:51.586Z,24.00
2022-09-14T17:02:53.452Z,23.90
2022-09-14T17:06:01.370Z,23.80
2022-09-14T17:09:09.464Z,23.60
2022-09-14T17:15:13.795Z,23.60
2022-09-14T17:18:15.670Z,23.40
2022-09-14T17:21:23.647Z,23.40
2022-09-14T17:24:25.541Z,23.30
2022-09-14T17:27:27.451Z,23.40
2022-09-14T17:30:29.307Z,23.40
2022-09-14T17:33:31.899Z,23.40
2022-09-14T17:36:34.255Z,23.10
2022-09-14T17:51:46.200Z,22.90
2022-09-14T17:54:48.067Z,23.00
2022-09-14T17:57:50.255Z,22.70
2022-09-14T18:01:08.081Z,22.90
2022-09-14T18:04:12.482Z,22.80
2022-09-14T18:07:14.871Z,22.70
2022-09-14T18:10:17.056Z,22.80
2022-09-14T18:13:19.230Z,22.80
2022-09-14T18:16:23.025Z,22.70
2022-09-14T18:19:25.551Z,22.60
2022-09-14T18:22:27.900Z,22.60
2022-09-14T18:25:30.189Z,22.40
2022-09-14T18:31:35.487Z,22.60
2022-09-14T18:34:37.658Z,22.60
2022-09-14T18:37:40.931Z,22.80
2022-09-14T18:40:43.436Z,23.00
2022-09-14T18:43:47.446Z,22.70
2022-09-14T18:56:06.696Z,23.00
2022-09-14T18:59:12.553Z,23.10
2022-09-14T19:02:14.859Z,22.90
2022-09-14T19:08:22.469Z,23.00
2022-09-14T19:11:27.791Z,23.10
2022-09-14T19:14:29.892Z,23.10
2022-09-14T19:17:32.171Z,23.10
2022-09-14T19:21:02.473Z,23.20
2022-09-14T19:24:09.230Z,23.30
2022-09-14T19:30:14.387Z,23.00
2022-09-14T19:33:16.595Z,23.00
2022-09-14T19:36:21.097Z,22.90
2022-09-14T19:39:24.948Z,23.00
2022-09-14T19:42:27.669Z,22.90
2022-09-14T19:45:29.933Z,22.90
2022-09-14T19:48:33.303Z,23.00
2022-09-14T19:51:35.584Z,22.90
2022-09-14T20:00:42.910Z,22.90
2022-09-14T20:03:46.112Z,23.00
2022-09-14T20:09:50.916Z,23.20
2022-09-14T20:12:53.859Z,23.20
2022-09-14T20:15:55.891Z,23.10
2022-09-14T20:18:59.966Z,23.10
2022-09-14T20:22:02.252Z,23.00
2022-09-14T20:25:05.414Z,23.10
2022-09-14T20:28:07.207Z,23.10
2022-09-14T20:31:12.807Z,23.00
2022-09-14T20:34:15.994Z,23.10
2022-09-14T20:37:17.892Z,23.10
2022-09-14T20:40:19.950Z,23.10
2022-09-14T20:43:21.928Z,23.10
2022-09-14T20:46:33.203Z,22.90
2022-09-14T20:52:37.374Z,23.20
2022-09-14T21:01:45.969Z,23.20
2022-09-14T21:04:47.847Z,23.10
2022-09-14T21:07:52.882Z,23.00
2022-09-14T21:10:58.039Z,23.00
2022-09-14T21:14:00.010Z,23.20
2022-09-14T21:17:01.895Z,23.20
2022-09-14T21:20:04.244Z,23.20
2022-09-14T21:26:10.441Z,23.30
2022-09-14T21:29:15.494Z,23.10
2022-09-14T21:32:17.523Z,23.10
2022-09-14T21:35:20.303Z,23.00
2022-09-14T21:38:22.160Z,23.00
2022-09-14T21:41:26.531Z,23.20
2022-09-14T21:44:33.741Z,23.30
2022-09-14T21:47:35.611Z,23.30
2022-09-14T21:50:37.470Z,23.30
2022-09-14T21:56:44.059Z,23.20
2022-09-14T21:59:45.929Z,23.30
2022-09-14T22:02:47.919Z,23.30
2022-09-14T22:06:03.010Z,23.40
2022-09-14T22:09:04.928Z,23.40
2022-09-14T22:15:09.631Z,23.30
2022-09-14T22:18:11.371Z,23.40
2022-09-14T22:21:13.514Z,23.40
2022-09-14T22:24:20.035Z,23.10
2022-09-14T22:27:21.904Z,23.20
2022-09-14T22:30:23.733Z,23.30
2022-09-14T22:33:25.597Z,23.30
2022-09-14T22:36:27.988Z,23.20
2022-09-14T22:39:29.754Z,23.30
2022-09-14T22:42:31.696Z,23.30
2022-09-14T22:45:33.476Z,23.30
2022-09-14T22:51:38.649Z,23.40
2022-09-14T22:54:40.482Z,23.40
2022-09-14T22:57:42.352Z,23.50
2022-09-14T23:06:48.958Z,23.30
2022-09-14T23:09:50.869Z,23.20
2022-09-14T23:12:52.904Z,23.10
2022-09-14T23:19:01.146Z,23.00
2022-09-14T23:25:05.682Z,23.10
2022-09-14T23:28:10.964Z,23.10
2022-09-14T23:34:15.314Z,23.10
2022-09-14T23:37:17.576Z,23.00
2022-09-14T23:40:19.773Z,23.00
2022-09-14T23:46:24.100Z,22.80
2022-09-14T23:52:28.566Z,22.80
2022-09-14T23:55:30.433Z,22.70
2022-09-14T23:58:32.740Z,22.70
